createdAt,value
2022-09-11T00:04:01.501Z,90.15
2022-09-11T00:09:01.936Z,90.88
2022-09-11T00:13:54.361Z,91.12
2022-09-11T00:18:46.888Z,91.86
2022-09-11T00:23:38.566Z,91.72
2022-09-11T00:28:30.786Z,92.62
2022-09-11T00:33:22.901Z,92.96
2022-09-11T00:38:17.371Z,93.25
2022-09-11T00:43:10.432Z,94.04
2022-09-11T00:48:04.156Z,94.08
2022-09-11T00:53:03.434Z,94.58
2022-09-11T00:58:03.785Z,95.08
2022-09-11T01:02:57.130Z,95.23
2022-09-11T01:07:54.257Z,95.71
2022-09-11T01:12:45.774Z,95.86
2022-09-11T01:17:54.134Z,96.42
2022-09-11T01:23:15.983Z,96.50
2022-09-11T01:28:14.576Z,97.05
2022-09-11T01:33:17.875Z,97.07
2022-09-11T01:38:17.204Z,97.26
2022-09-11T01:43:27.065Z,97.77
2022-09-11T01:48:24.228Z,97.58
2022-09-11T01:53:20.792Z,97.75
2022-09-11T01:58:23.285Z,97.73
2022-09-11T02:03:38.287Z,98.26
2022-09-11T02:08:49.152Z,98.00
2022-09-11T02:13:50.059Z,98.69
2022-09-11T02:18:48.488Z,99.32
2022-09-11T02:23:40.261Z,99.60
2022-09-11T02:28:31.924Z,99.76
2022-09-11T02:33:32.414Z,100.00
2022-09-11T02:38:42.860Z,100.00
2022-09-11T02:43:45.569Z,100.00
2022-09-11T02:49:00.253Z,100.00
2022-09-11T02:53:57.801Z,100.00
2022-09-11T02:59:03.658Z,100.00
2022-09-11T03:03:55.595Z,100.00
2022-09-11T03:08:47.768Z,100.00
2022-09-11T03:13:39.832Z,100.00
2022-09-11T03:18:32.037Z,100.00
2022-09-11T03:23:23.663Z,100.00
2022-09-11T03:28:15.234Z,100.00
2022-09-11T03:33:07.412Z,100.00
2022-09-11T03:37:59.024Z,100.00
2022-09-11T03:42:50.596Z,100.00
2022-09-11T03:47:42.284Z,100.00
2022-09-11T03:52:34.751Z,100.00
2022-09-11T03:57:26.605Z,100.00
2022-09-11T04:02:25.785Z,100.00
2022-09-11T04:07:17.405Z,100.00
2022-09-11T04:12:09.088Z,100.00
2022-09-11T04:17:00.680Z,100.00
2022-09-11T04:21:52.255Z,100.00
2022-09-11T04:26:43.829Z,100.00
2022-09-11T04:31:36.623Z,100.00
2022-09-11T04:36:30.075Z,100.00
2022-09-11T04:41:22.223Z,100.00
2022-09-11T04:46:17.425Z,100.00
2022-09-11T04:51:09.125Z,100.00
2022-09-11T04:56:07.907Z,100.00
2022-09-11T05:00:59.624Z,100.00
2022-09-11T05:05:51.221Z,100.00
2022-09-11T05:10:42.773Z,100.00
2022-09-11T05:15:34.645Z,100.00
2022-09-11T05:20:26.185Z,100.00
2022-09-11T05:25:18.612Z,100.00
2022-09-11T05:30:11.144Z,100.00
2022-09-11T05:35:02.747Z,100.00
2022-09-11T05:39:54.582Z,100.00
2022-09-11T05:44:47.275Z,100.00
2022-09-11T05:49:38.818Z,100.00
2022-09-11T05:54:30.405Z,100.00
2022-09-11T05:59:21.996Z,100.00
2022-09-11T06:04:14.124Z,100.00
2022-09-11T06:09:06.908Z,100.00
2022-09-11T06:13:58.474Z,100.00
2022-09-11T06:18:51.530Z,100.00
2022-09-11T06:23:43.408Z,100.00
2022-09-11T06:28:37.847Z,100.00
2022-09-11T06:33:34.586Z,100.00
2022-09-11T06:38:26.908Z,100.00
2022-09-11T06:43:18.585Z,100.00
2022-09-11T06:48:10.369Z,100.00
2022-09-11T06:53:01.931Z,100.00
2022-09-11T06:57:53.848Z,100.00
2022-09-11T07:02:46.400Z,100.00
2022-09-11T07:07:39.470Z,100.00
2022-09-11T07:12:32.113Z,100.00
2022-09-11T07:17:23.743Z,100.00
2022-09-11T07:22:15.654Z,100.00
2022-09-11T07:27:07.281Z,100.00
2022-09-11T07:31:59.000Z,100.00
2022-09-11T07:36:51.889Z,100.00
2022-09-11T07:41:43.479Z,100.00
2022-09-11T07:46:35.836Z,100.00
2022-09-11T07:51:28.209Z,100.00
2022-09-11T07:56:23.959Z,100.00
2022-09-11T08:01:21.216Z,100.00
2022-09-11T08:06:22.101Z,100.00
2022-09-11T08:11:17.269Z,100.00
2022-09-11T08:16:09.431Z,100.00
2022-09-11T08:21:03.509Z,100.00
2022-09-11T08:25:57.304Z,100.00
2022-09-11T08:30:48.930Z,100.00
2022-09-11T08:35:40.518Z,100.00
2022-09-11T08:40:38.068Z,100.00
2022-09-11T08:45:35.373Z,100.00
2022-09-11T08:50:41.485Z,100.00
2022-09-11T08:55:41.552Z,100.00
2022-09-11T09:00:49.652Z,100.00
2022-09-11T09:05:58.574Z,100.00
2022-09-11T09:10:50.246Z,100.00
2022-09-11T09:15:53.861Z,100.00
2022-09-11T09:20:52.601Z,100.00
2022-09-11T09:25:45.245Z,100.00
2022-09-11T09:31:03.931Z,100.00
2022-09-11T09:35:55.580Z,100.00
2022-09-11T09:41:18.783Z,100.00
2022-09-11T09:46:13.376Z,100.00
2022-09-11T09:51:05.310Z,99.34
2022-09-11T09:56:00.302Z,100.00
2022-09-11T10:00:52.106Z,98.81
2022-09-11T10:05:44.929Z,96.57
2022-09-11T10:10:38.906Z,94.76
2022-09-11T10:15:31.173Z,93.73
2022-09-11T10:20:26.942Z,93.75
2022-09-11T10:25:28.290Z,93.08
2022-09-11T10:30:33.036Z,93.88
2022-09-11T10:35:27.890Z,93.73
2022-09-11T10:40:22.874Z,92.66
2022-09-11T10:45:17.330Z,93.02
2022-09-11T10:50:18.142Z,93.19
2022-09-11T10:55:15.674Z,94.09
2022-09-11T11:00:27.204Z,93.75
2022-09-11T11:05:36.140Z,94.02
2022-09-11T11:10:52.568Z,92.87
2022-09-11T11:16:15.455Z,92.35
2022-09-11T11:21:24.737Z,92.41
2022-09-11T11:26:35.324Z,92.30
2022-09-11T11:32:00.818Z,91.64
2022-09-11T11:37:12.597Z,91.74
2022-09-11T11:42:21.999Z,92.51
2022-09-11T11:47:16.677Z,93.35
2022-09-11T11:52:27.195Z,92.34
2022-09-11T11:57:22.414Z,89.42
2022-09-11T12:02:22.085Z,86.43
2022-09-11T12:07:27.614Z,86.98
2022-09-11T12:12:21.361Z,85.87
2022-09-11T12:17:33.254Z,85.85
2022-09-11T12:22:38.354Z,83.67
2022-09-11T12:27:36.346Z,83.69
2022-09-11T12:32:41.869Z,83.96
2022-09-11T12:37:38.709Z,83.68
2022-09-11T12:42:30.221Z,84.03
2022-09-11T12:47:29.342Z,83.99
2022-09-11T12:52:30.613Z,85.02
2022-09-11T12:57:29.217Z,85.78
2022-09-11T13:02:53.199Z,85.37
2022-09-11T13:07:52.230Z,85.60
2022-09-11T13:12:56.273Z,85.30
2022-09-11T13:17:48.277Z,83.04
2022-09-11T13:22:39.850Z,82.78
2022-09-11T13:27:31.550Z,82.39
2022-09-11T13:32:23.404Z,81.40
2022-09-11T13:37:34.633Z,81.46
2022-09-11T13:42:26.354Z,80.37
2022-09-11T13:47:26.750Z,75.19
2022-09-11T13:52:22.109Z,73.72
2022-09-11T13:57:15.430Z,71.91
2022-09-11T14:02:31.406Z,71.59
2022-09-11T14:07:26.307Z,72.51
2022-09-11T14:12:20.381Z,69.80
2022-09-11T14:17:13.869Z,68.89
2022-09-11T14:22:21.666Z,69.41
2022-09-11T14:27:32.842Z,70.33
2022-09-11T14:32:37.049Z,69.79
2022-09-11T14:37:34.580Z,67.24
2022-09-11T14:42:31.671Z,68.83
2022-09-11T14:47:28.246Z,68.92
2022-09-11T14:52:25.713Z,67.78
2022-09-11T14:57:22.929Z,67.48
2022-09-11T15:02:21.400Z,67.02
2022-09-11T15:07:15.097Z,67.12
2022-09-11T15:12:08.745Z,67.96
2022-09-11T15:17:02.506Z,67.76
2022-09-11T15:21:56.673Z,68.07
2022-09-11T15:26:48.343Z,68.26
2022-09-11T15:31:39.930Z,68.98
2022-09-11T15:36:32.697Z,69.58
2022-09-11T15:41:25.427Z,69.68
2022-09-11T15:46:19.502Z,69.46
2022-09-11T15:51:15.050Z,68.07
2022-09-11T15:56:12.289Z,68.15
2022-09-11T16:01:04.105Z,68.00
2022-09-11T16:05:57.122Z,69.09
2022-09-11T16:10:56.910Z,69.53
2022-09-11T16:15:51.289Z,68.68
2022-09-11T16:20:49.867Z,68.81
2022-09-11T16:25:42.381Z,69.81
2022-09-11T16:30:49.553Z,70.59
2022-09-11T16:35:42.828Z,71.11
2022-09-11T16:40:44.818Z,71.86
2022-09-11T16:45:38.674Z,72.70
2022-09-11T16:50:36.809Z,71.87
2022-09-11T16:55:28.593Z,72.15
2022-09-11T17:00:26.699Z,72.42
2022-09-11T17:05:18.223Z,72.15
2022-09-11T17:10:16.735Z,72.91
2022-09-11T17:15:08.886Z,72.74
2022-09-11T17:20:00.763Z,73.07
2022-09-11T17:24:52.409Z,73.09
2022-09-11T17:29:44.954Z,72.84
2022-09-11T17:34:37.257Z,73.19
2022-09-11T17:39:28.989Z,73.33
2022-09-11T17:44:24.193Z,73.38
2022-09-11T17:49:16.057Z,73.65
2022-09-11T17:54:07.789Z,73.44
2022-09-11T17:59:00.752Z,73.60
2022-09-11T18:03:57.083Z,73.97
2022-09-11T18:08:48.823Z,74.17
2022-09-11T18:13:43.095Z,74.64
2022-09-11T18:18:35.051Z,74.64
2022-09-11T18:23:26.786Z,74.51
2022-09-11T18:28:20.083Z,75.13
2022-09-11T18:33:12.186Z,75.60
2022-09-11T18:38:05.008Z,76.32
2022-09-11T18:42:56.719Z,75.79
2022-09-11T18:47:52.796Z,77.54
2022-09-11T18:52:44.581Z,77.76
2022-09-11T18:57:41.185Z,79.29
2022-09-11T19:02:34.159Z,79.67
2022-09-11T19:07:25.775Z,77.96
2022-09-11T19:12:17.477Z,79.50
2022-09-11T19:17:09.155Z,80.91
2022-09-11T19:22:00.812Z,82.13
2022-09-11T19:26:52.870Z,82.58
2022-09-11T19:31:44.691Z,83.66
2022-09-11T19:36:36.656Z,84.67
2022-09-11T19:41:33.367Z,84.39
2022-09-11T19:46:27.411Z,84.54
2022-09-11T19:51:28.657Z,83.95
2022-09-11T19:56:20.348Z,83.97
2022-09-11T20:01:17.373Z,84.13
2022-09-11T20:06:10.434Z,83.39
2022-09-11T20:11:04.641Z,82.61
2022-09-11T20:15:56.362Z,82.75
2022-09-11T20:20:47.996Z,82.11
2022-09-11T20:25:39.894Z,82.02
2022-09-11T20:30:35.645Z,81.69
2022-09-11T20:35:27.368Z,80.98
2022-09-11T20:40:19.739Z,80.78
2022-09-11T20:45:11.614Z,80.64
2022-09-11T20:50:04.829Z,80.48
2022-09-11T20:54:56.644Z,80.50
2022-09-11T20:59:49.931Z,79.82
2022-09-11T21:04:41.867Z,80.06
2022-09-11T21:09:33.540Z,79.78
2022-09-11T21:14:25.302Z,79.73
2022-09-11T21:19:17.007Z,79.77
2022-09-11T21:24:12.540Z,79.77
2022-09-11T21:29:07.010Z,79.53
2022-09-11T21:33:59.149Z,79.53
2022-09-11T21:38:50.857Z,79.42
2022-09-11T21:43:42.654Z,79.54
2022-09-11T21:48:39.905Z,80.15
2022-09-11T21:53:31.597Z,79.92
2022-09-11T21:58:23.290Z,79.90
2022-09-11T22:03:16.764Z,79.80
2022-09-11T22:08:09.081Z,80.13
2022-09-11T22:13:00.898Z,79.96
2022-09-11T22:17:53.796Z,80.08
2022-09-11T22:22:46.278Z,80.06
2022-09-11T22:27:37.918Z,80.31
2022-09-11T22:32:30.821Z,80.09
2022-09-11T22:37:22.433Z,80.25
2022-09-11T22:42:14.070Z,79.86
2022-09-11T22:47:05.787Z,79.75
2022-09-11T22:51:57.490Z,80.03
2022-09-11T22:56:49.274Z,80.34
2022-09-11T23:01:40.949Z,80.96
2022-09-11T23:06:51.334Z,81.93
2022-09-11T23:11:44.556Z,82.48
2022-09-11T23:16:36.276Z,83.32
2022-09-11T23:21:29.633Z,83.58
2022-09-11T23:26:21.657Z,84.00
2022-09-11T23:31:22.422Z,85.16
2022-09-11T23:36:17.168Z,86.53
2022-09-11T23:41:08.923Z,87.81
2022-09-11T23:46:00.729Z,88.84
2022-09-11T23:50:52.427Z,89.80
2022-09-11T23:55:47.869Z,91.81
